Dati Storici

Data ora Umidita' aria (%) Temperatura aria (°C) Rad globale (W/m²) Gonioanemometro (°) Tacoanemometro (m/s) Pioggia (mm)
24-06-2020 08:50 58.7 % 24.986 84.85 1.158 0 0
24-06-2020 08:40 60.1 % 25.38 127.748 0.033 0 0
24-06-2020 08:30 58.9 % 24.913 126.526 0.45 0 0
24-06-2020 08:20 58.1 % 25.851 69.115 0.271 0 0
24-06-2020 08:10 58.3 % 25.35 116.003 1.18 0 0
24-06-2020 08:00 58.2 % 25.306 55.612 0.219 0 0
24-06-2020 07:50 60 % 24.855 113.474 -0.033 0 0
24-06-2020 07:40 60.1 % 24.344 150.462 0.353 0 0
24-06-2020 07:30 63.4 % 25.379 117.96 1.541 0 0
24-06-2020 07:20 64 % 23.999 331.439 -0.026 0 0
24-06-2020 07:10 65.9 % 23.873 40.195 1.303 0 0
24-06-2020 07:00 65.1 % 23.678 44.824 0.904 0 0
24-06-2020 06:50 68.6 % 24.375 38.266 -0.026 0 0
24-06-2020 06:40 70.7 % 23.172 81.097 -0.02 0 0
24-06-2020 06:30 71.3 % 22.615 14.673 1.19 0 0
24-06-2020 06:20 71.6 % 22.49 15.539 0.96 0 0
24-06-2020 06:10 71.2 % 22.573 84.752 0.13 0 0
24-06-2020 06:00 69.6 % 22.301 15.918 2.015 0 0
24-06-2020 05:50 71.8 % 22.814 251.036 -0.015 0 0
24-06-2020 05:40 72.7 % 21.994 179.776 -0.011 0 0

I dati sono presentati in modo automatico a scopo informativo. In seguito a verifica i dati possono subire modifiche o essere invalidati e non riportati negli archivi definitivi.